Daily Weather Observations for Burdell (Townsville)
For Sunday 17th February 2019

This table is designed for ease of comparison to Bureau of Meteorology recorded weather data.

Station Details Name: BURDELL Lat: -19.24 Lon: 146.69 Height: 8.5 m
Date/Time
EST
Temp
°C
App
Temp
°C
Dew
Point
°C
Rel
Hum
%
Delta-T
°C
Wind Press
QNH
hPa
Press
MSL
hPa
Rain since
9am
mm
Dir  Spd
km/h
Gust
km/h
Spd
kts
Gust
kts
17/11:30pm 26.6 31.8 24.1 87 1.8 E 4 5 2 3 1007.7 1007.7 0.0
17/11:00pm 26.3 31.9 24.0 87 1.7 ENE 2 5 1 3 1007.6 1007.6 0.0
17/10:30pm 26.4 31.8 23.6 85 2.0 ENE 2 3 1 2 1007.6 1007.6 0.0
17/10:00pm 26.6 32.1 23.7 84 2.1 NE 1 2 1 1 1007.3 1007.3 0.0
17/09:30pm 26.9 32.2 23.8 83 2.3 N 2 2 1 1 1007.3 1007.3 0.0
17/09:00pm 26.8 32.2 23.5 82 2.4 NE 2 5 1 3 1007.0 1007.0 0.0
17/08:30pm 27.4 32.4 23.4 79 2.9 NNW 3 5 1 3 1006.8 1006.8 0.0
17/08:00pm 27.7 33.0 23.5 78 3.0 N 2 5 1 3 1006.4 1006.4 0.0
17/07:30pm 27.9 32.8 23.7 78 3.0 NNW 5 10 3 6 1006.1 1006.1 0.0
17/07:00pm 27.9 32.7 23.7 78 3.0 NNW 7 8 4 4 1005.5 1005.5 0.0
17/06:30pm 28.3 32.7 23.9 77 3.2 NNW 7 10 4 6 1005.3 1005.3 0.0
17/06:00pm 28.6 32.7 23.7 75 3.6 NNW 9 10 5 6 1005.0 1005.0 0.0
17/05:30pm 28.8 33.0 23.8 75 3.6 NNW 13 16 7 9 1004.7 1004.7 0.0
17/05:00pm 29.4 34.0 24.0 74 3.9 NNW 14 18 8 10 1005.0 1005.0 0.0
17/04:30pm 29.4 33.8 23.7 72 4.1 NNW 14 18 7 10 1005.1 1005.1 0.0
17/04:00pm 31.2 36.9 24.1 67 5.2 NNW 18 32 10 17 1005.7 1005.7 0.0
17/03:30pm 32.1 38.7 24.6 65 5.5 NNW 20 26 11 14 1005.6 1005.6 0.0
17/03:00pm 32.2 38.9 24.6 65 5.6 NNW 20 29 11 16 1006.0 1006.0 0.0
17/02:30pm 31.9 38.1 24.2 64 5.6 NNW 21 23 11 13 1006.3 1006.3 0.0
17/02:00pm 31.3 38.4 25.2 70 4.5 NNW 18 26 10 14 1006.6 1006.6 0.0
17/01:30pm 32.4 37.7 23.4 62 6.5 NE 10 13 5 7 1007.2 1007.2 0.0
17/01:00pm 32.8 40.9 25.5 66 5.4 N 14 23 7 13 1007.7 1007.7 0.0
17/12:30pm 31.8 38.5 24.7 66 5.2 NNE 8 13 4 7 1008.1 1008.1 0.0
17/12:00pm 33.2 39.7 24.1 60 6.6 N 9 16 5 9 1008.4 1008.4 0.0
17/11:30am 32.6 39.7 25.0 65 5.6 ENE 12 21 6 11 1008.8 1008.8 0.0
17/11:00am 32.1 39.3 25.0 67 5.2 NNE 10 13 5 7 1009.2 1009.2 0.0
17/10:30am 32.3 39.5 25.1 67 5.3 NE 13 21 7 11 1009.6 1009.6 0.0
17/10:00am 30.9 37.6 25.0 73 4.4 ENE 8 13 4 7 1009.9 1009.9 0.0
17/09:30am 30.4 36.9 25.1 74 3.9 E 7 13 4 7 1010.2 1010.2 0.0
17/09:00am 29.2 34.0 24.5 77 3.4 SE 10 16 5 9 1010.2 1010.2 0.0
17/08:30am 28.5 34.0 24.8 81 2.7 ESE 4 8 2 4 1010.1 1010.1 0.0
17/08:00am 27.5 33.7 24.8 86 2.0 SSW 1 2 0 1 1009.9 1009.9 0.0
17/07:30am 26.8 32.8 24.8 89 1.5 SW 2 2 1 1 1009.7 1009.7 0.0
17/07:00am 26.4 32.3 24.7 91 1.2 SW 2 3 1 2 1009.4 1009.4 0.0
17/06:30am 25.6 31.3 24.4 93 0.9 WSW 3 8 2 4 1009.1 1009.1 0.0
17/06:00am 25.3 31.0 24.1 93 0.9 SSW 1 2 1 1 1008.7 1008.7 0.0
17/05:30am 25.2 30.9 24.2 94 0.7 WNW 2 3 1 2 1008.3 1008.3 0.0
17/05:00am 25.5 31.3 24.1 92 1.0 WNW 0 2 0 1 1008.1 1008.1 0.0
17/04:30am 25.9 31.7 24.3 91 1.2 WNW 1 2 0 1 1008.1 1008.1 0.0
17/04:00am 26.6 32.1 24.4 88 1.6 SSE 4 8 2 4 1007.9 1007.9 0.0
17/03:30am 26.8 32.2 24.5 87 1.7 S 4 5 2 3 1007.7 1007.7 0.0
17/03:00am 26.4 31.9 24.2 88 1.6 ESE 4 8 2 4 1007.7 1007.7 0.0
17/02:30am 26.6 30.9 24.1 86 1.8 E 8 10 4 6 1007.9 1007.9 0.0
17/02:00am 26.6 31.8 24.3 87 1.7 ESE 5 10 3 6 1008.1 1008.1 0.0
17/01:30am 26.7 31.6 24.4 87 1.7 E 7 10 4 6 1008.2 1008.2 0.0
17/01:00am 26.8 32.0 24.6 88 1.6 E 6 8 3 4 1008.6 1008.6 0.0
17/12:30am 26.6 32.2 25.0 91 1.2 E 5 5 2 3 1009.0 1009.0 0.0
17/12:00am 26.9 31.5 25.0 90 1.4 E 12 16 7 9 1009.2 1009.2 0.0
 


NOTE: The apparent temperature specified in the table above is calculated using both the Heat Index and Steadman method. This differs to the Bureau of Meteorology's calculation which uses the Steadman method alone.